Terminal Aerodrome Forecast
Issued by NWS

Home | Current Version | Previous Version | Text Only | Print | Product List | Glossary On
Versions: 1 2 3 4 5 6 7 8 9 10 11 12 13 14 15 16 17 18
000
FTUS43 KPAH 220900 AAA
TAFCGI
TAF AMD
KCGI 220908Z 2209/2306 19005KT P6SM SKC
      TEMPO 2209/2212 4SM BR
     FM221500 23007KT P6SM FEW050
     FM230100 19004KT P6SM SKC=

USA.gov is the U.S. government's official web portal to all federal, state and local government web resources and services.